sensor_id;sensor_type;location;lat;lon;timestamp;P1;durP1;ratioP1;P2;durP2;ratioP2
3831;SDS011;12460;42.662;23.288;2024-03-23T00:58:45;11.80;;;8.07;;
3831;SDS011;12460;42.662;23.288;2024-03-23T01:13:46;11.43;;;8.00;;
3831;SDS011;12460;42.662;23.288;2024-03-23T01:28:46;9.80;;;7.97;;
3831;SDS011;12460;42.662;23.288;2024-03-23T01:43:47;11.10;;;7.83;;
3831;SDS011;12460;42.662;23.288;2024-03-23T01:58:48;12.90;;;7.72;;
3831;SDS011;12460;42.662;23.288;2024-03-23T02:13:49;12.27;;;7.30;;
3831;SDS011;12460;42.662;23.288;2024-03-23T02:28:50;11.23;;;8.15;;
3831;SDS011;12460;42.662;23.288;2024-03-23T02:43:51;12.73;;;9.55;;
3831;SDS011;12460;42.662;23.288;2024-03-23T02:58:51;12.23;;;8.35;;
3831;SDS011;12460;42.662;23.288;2024-03-23T03:13:52;9.60;;;8.45;;
3831;SDS011;12460;42.662;23.288;2024-03-23T03:28:53;14.75;;;9.70;;
3831;SDS011;12460;42.662;23.288;2024-03-23T03:43:54;15.40;;;10.30;;
3831;SDS011;12460;42.662;23.288;2024-03-23T03:58:55;13.73;;;8.80;;
3831;SDS011;12460;42.662;23.288;2024-03-23T04:13:56;8.95;;;7.57;;
3831;SDS011;12460;42.662;23.288;2024-03-23T04:28:57;13.48;;;9.00;;
3831;SDS011;12460;42.662;23.288;2024-03-23T04:43:58;12.68;;;9.65;;
3831;SDS011;12460;42.662;23.288;2024-03-23T04:58:59;13.17;;;9.90;;
3831;SDS011;12460;42.662;23.288;2024-03-23T05:14:02;18.73;;;11.03;;
3831;SDS011;12460;42.662;23.288;2024-03-23T05:29:03;18.17;;;12.67;;
3831;SDS011;12460;42.662;23.288;2024-03-23T05:44:05;19.87;;;13.50;;
3831;SDS011;12460;42.662;23.288;2024-03-23T05:59:06;20.70;;;15.30;;
3831;SDS011;12460;42.662;23.288;2024-03-23T06:14:07;19.60;;;15.70;;
3831;SDS011;12460;42.662;23.288;2024-03-23T06:29:08;17.50;;;15.33;;
3831;SDS011;12460;42.662;23.288;2024-03-23T06:44:09;18.92;;;14.18;;
3831;SDS011;12460;42.662;23.288;2024-03-23T06:59:10;19.48;;;14.75;;
3831;SDS011;12460;42.662;23.288;2024-03-23T07:14:11;18.53;;;12.97;;
3831;SDS011;12460;42.662;23.288;2024-03-23T07:29:12;17.10;;;13.00;;
3831;SDS011;12460;42.662;23.288;2024-03-23T07:44:13;17.90;;;13.43;;
3831;SDS011;12460;42.662;23.288;2024-03-23T07:59:14;18.27;;;14.27;;
3831;SDS011;12460;42.662;23.288;2024-03-23T08:14:15;18.05;;;14.98;;
3831;SDS011;12460;42.662;23.288;2024-03-23T08:29:16;14.82;;;13.27;;
3831;SDS011;12460;42.662;23.288;2024-03-23T08:44:17;17.37;;;13.70;;
3831;SDS011;12460;42.662;23.288;2024-03-23T08:59:17;16.57;;;13.93;;
3831;SDS011;12460;42.662;23.288;2024-03-23T09:14:21;19.80;;;16.30;;
3831;SDS011;12460;42.662;23.288;2024-03-23T09:29:22;17.87;;;15.30;;
3831;SDS011;12460;42.662;23.288;2024-03-23T09:44:24;15.83;;;14.00;;
3831;SDS011;12460;42.662;23.288;2024-03-23T09:59:26;14.50;;;13.00;;
3831;SDS011;12460;42.662;23.288;2024-03-23T10:14:30;14.00;;;12.50;;
3831;SDS011;12460;42.662;23.288;2024-03-23T10:29:31;13.90;;;11.30;;
3831;SDS011;12460;42.662;23.288;2024-03-23T10:44:32;12.97;;;11.07;;
3831;SDS011;12460;42.662;23.288;2024-03-23T10:59:33;12.67;;;10.30;;
3831;SDS011;12460;42.662;23.288;2024-03-23T11:14:35;12.20;;;11.00;;
3831;SDS011;12460;42.662;23.288;2024-03-23T11:29:36;10.33;;;9.33;;
3831;SDS011;12460;42.662;23.288;2024-03-23T11:44:38;11.10;;;9.90;;
3831;SDS011;12460;42.662;23.288;2024-03-23T11:59:39;13.07;;;10.10;;
3831;SDS011;12460;42.662;23.288;2024-03-23T12:14:41;4.97;;;4.47;;
3831;SDS011;12460;42.662;23.288;2024-03-23T12:29:43;2.80;;;2.60;;
3831;SDS011;12460;42.662;23.288;2024-03-23T12:44:46;2.90;;;2.70;;
3831;SDS011;12460;42.662;23.288;2024-03-23T12:59:47;3.60;;;3.20;;
3831;SDS011;12460;42.662;23.288;2024-03-23T13:14:51;2.70;;;2.50;;
3831;SDS011;12460;42.662;23.288;2024-03-23T13:29:52;2.93;;;2.60;;
3831;SDS011;12460;42.662;23.288;2024-03-23T13:44:52;2.80;;;2.60;;
3831;SDS011;12460;42.662;23.288;2024-03-23T13:59:53;2.83;;;2.63;;
3831;SDS011;12460;42.662;23.288;2024-03-23T14:14:54;3.27;;;3.07;;
3831;SDS011;12460;42.662;23.288;2024-03-23T14:29:55;3.53;;;3.23;;
3831;SDS011;12460;42.662;23.288;2024-03-23T14:44:56;4.53;;;3.90;;
3831;SDS011;12460;42.662;23.288;2024-03-23T14:59:57;4.97;;;4.30;;
3831;SDS011;12460;42.662;23.288;2024-03-23T15:14:59;5.05;;;4.18;;
3831;SDS011;12460;42.662;23.288;2024-03-23T15:30:00;4.30;;;3.90;;
3831;SDS011;12460;42.662;23.288;2024-03-23T15:45:01;4.00;;;3.60;;
3831;SDS011;12460;42.662;23.288;2024-03-23T16:00:04;3.70;;;3.40;;
3831;SDS011;12460;42.662;23.288;2024-03-23T16:15:12;4.40;;;4.00;;
3831;SDS011;12460;42.662;23.288;2024-03-23T16:30:13;4.57;;;3.63;;
3831;SDS011;12460;42.662;23.288;2024-03-23T16:45:14;5.93;;;5.10;;
3831;SDS011;12460;42.662;23.288;2024-03-23T17:00:15;5.20;;;4.60;;
3831;SDS011;12460;42.662;23.288;2024-03-23T17:15:16;6.57;;;5.33;;
3831;SDS011;12460;42.662;23.288;2024-03-23T17:30:21;6.27;;;5.40;;
3831;SDS011;12460;42.662;23.288;2024-03-23T17:45:22;6.28;;;5.63;;
3831;SDS011;12460;42.662;23.288;2024-03-23T18:00:23;10.70;;;5.10;;
3831;SDS011;12460;42.662;23.288;2024-03-23T18:15:24;7.13;;;4.90;;
3831;SDS011;12460;42.662;23.288;2024-03-23T18:30:25;4.22;;;3.92;;
3831;SDS011;12460;42.662;23.288;2024-03-23T18:45:26;4.70;;;4.30;;
3831;SDS011;12460;42.662;23.288;2024-03-23T19:00:26;4.70;;;4.03;;
3831;SDS011;12460;42.662;23.288;2024-03-23T19:15:27;4.40;;;4.00;;
3831;SDS011;12460;42.662;23.288;2024-03-23T19:30:29;16.00;;;10.13;;
3831;SDS011;12460;42.662;23.288;2024-03-23T19:45:30;16.00;;;10.03;;
3831;SDS011;12460;42.662;23.288;2024-03-23T20:00:32;10.37;;;8.63;;
3831;SDS011;12460;42.662;23.288;2024-03-23T20:15:33;16.27;;;9.80;;
3831;SDS011;12460;42.662;23.288;2024-03-23T20:30:34;11.35;;;9.52;;
3831;SDS011;12460;42.662;23.288;2024-03-23T20:45:35;11.97;;;9.13;;
3831;SDS011;12460;42.662;23.288;2024-03-23T21:00:36;11.68;;;8.35;;
3831;SDS011;12460;42.662;23.288;2024-03-23T21:15:37;11.90;;;8.95;;
3831;SDS011;12460;42.662;23.288;2024-03-23T21:30:38;11.98;;;8.40;;
3831;SDS011;12460;42.662;23.288;2024-03-23T21:45:38;10.20;;;8.60;;
3831;SDS011;12460;42.662;23.288;2024-03-23T22:00:39;9.82;;;8.05;;
3831;SDS011;12460;42.662;23.288;2024-03-23T22:15:40;8.97;;;8.00;;
3831;SDS011;12460;42.662;23.288;2024-03-23T22:30:43;15.70;;;11.00;;
3831;SDS011;12460;42.662;23.288;2024-03-23T22:46:05;15.00;;;10.80;;
3831;SDS011;12460;42.662;23.288;2024-03-23T23:01:06;18.70;;;11.17;;
3831;SDS011;12460;42.662;23.288;2024-03-23T23:16:07;12.20;;;10.37;;
3831;SDS011;12460;42.662;23.288;2024-03-23T23:31:08;11.30;;;8.60;;
3831;SDS011;12460;42.662;23.288;2024-03-23T23:46:09;10.27;;;7.20;;
